createdAt,value
2019-05-03T00:01:56.741Z,0.40
2019-05-03T00:04:26.810Z,0.30
2019-05-03T00:06:56.986Z,0.30
2019-05-03T00:09:27.070Z,0.40
2019-05-03T00:11:57.034Z,0.30
2019-05-03T00:14:27.188Z,0.30
2019-05-03T00:16:57.169Z,0.30
2019-05-03T00:19:27.230Z,0.30
2019-05-03T00:21:57.266Z,0.23
2019-05-03T00:24:27.348Z,0.40
2019-05-03T00:26:57.339Z,0.40
2019-05-03T00:29:27.335Z,0.30
2019-05-03T00:31:57.340Z,0.40
2019-05-03T00:34:46.474Z,0.50
2019-05-03T00:37:18.472Z,0.50
2019-05-03T00:39:58.678Z,0.40
2019-05-03T00:42:28.669Z,0.40
2019-05-03T00:44:58.650Z,0.30
2019-05-03T00:47:28.659Z,0.80
2019-05-03T00:49:58.713Z,0.50
2019-05-03T00:52:28.697Z,0.50
2019-05-03T00:54:58.744Z,0.50
2019-05-03T00:57:32.105Z,0.47
2019-05-03T01:00:02.272Z,0.40
2019-05-03T01:02:34.041Z,0.40
2019-05-03T01:05:05.720Z,0.40
2019-05-03T01:07:35.728Z,0.40
2019-05-03T01:10:09.045Z,0.37
2019-05-03T01:12:39.030Z,0.50
2019-05-03T01:15:21.517Z,0.50
2019-05-03T01:17:57.759Z,0.60
2019-05-03T01:20:27.848Z,0.50
2019-05-03T01:22:57.858Z,0.50
2019-05-03T01:25:32.400Z,0.50
2019-05-03T01:28:01.445Z,0.50
2019-05-03T01:30:32.724Z,0.57
2019-05-03T01:33:02.944Z,0.50
2019-05-03T01:35:32.930Z,0.47
2019-05-03T01:38:02.949Z,0.27
2019-05-03T01:40:32.962Z,0.60
2019-05-03T01:43:03.011Z,0.50
2019-05-03T01:45:33.085Z,0.50
2019-05-03T01:48:05.040Z,0.67
2019-05-03T01:50:42.600Z,0.50
2019-05-03T01:53:26.157Z,0.40
2019-05-03T01:55:56.158Z,1.10
2019-05-03T01:58:26.533Z,0.87
2019-05-03T02:00:58.224Z,0.60
2019-05-03T02:03:32.829Z,0.60
2019-05-03T02:06:02.952Z,0.50
2019-05-03T02:08:33.070Z,0.70
2019-05-03T02:11:03.143Z,0.77
2019-05-03T02:13:33.133Z,0.50
2019-05-03T02:16:03.286Z,0.40
2019-05-03T02:18:33.381Z,0.50
2019-05-03T02:21:03.490Z,0.60
2019-05-03T02:23:33.626Z,0.60
2019-05-03T02:26:03.660Z,0.60
2019-05-03T02:28:33.658Z,0.50
2019-05-03T02:31:03.817Z,0.60
2019-05-03T02:33:33.788Z,0.57
2019-05-03T02:36:04.088Z,0.50
2019-05-03T02:38:34.100Z,0.50
2019-05-03T02:41:04.164Z,0.50
2019-05-03T02:43:36.535Z,0.50
2019-05-03T02:46:08.400Z,0.60
2019-05-03T02:48:55.778Z,0.40
2019-05-03T02:51:26.402Z,0.50
2019-05-03T02:53:57.313Z,0.63
2019-05-03T02:56:27.401Z,0.40
2019-05-03T02:58:57.503Z,0.60
2019-05-03T03:01:27.708Z,0.50
2019-05-03T03:03:58.430Z,1.20
2019-05-03T03:06:30.357Z,0.90
2019-05-03T03:09:00.487Z,0.80
2019-05-03T03:11:35.542Z,0.60
2019-05-03T03:14:07.626Z,0.50
2019-05-03T03:16:39.311Z,0.40
2019-05-03T03:19:11.455Z,0.63
2019-05-03T03:21:46.687Z,0.60
2019-05-03T03:24:20.017Z,0.50
2019-05-03T03:26:51.731Z,0.50
2019-05-03T03:29:25.404Z,0.50
2019-05-03T03:32:10.056Z,0.40
2019-05-03T03:34:56.706Z,0.40
2019-05-03T03:37:25.958Z,0.43
2019-05-03T03:39:56.332Z,0.70
2019-05-03T03:42:28.350Z,0.63
2019-05-03T03:44:58.961Z,0.67
2019-05-03T03:47:32.099Z,0.63
2019-05-03T03:50:05.871Z,0.77
2019-05-03T03:52:37.274Z,0.70
2019-05-03T03:55:08.108Z,0.60
2019-05-03T03:57:38.287Z,0.50
2019-05-03T04:00:09.810Z,0.40
2019-05-03T04:02:40.132Z,0.50
2019-05-03T04:05:10.397Z,0.50
2019-05-03T04:07:41.535Z,0.50
2019-05-03T04:10:12.172Z,0.60
2019-05-03T04:12:45.435Z,0.60
2019-05-03T04:15:17.316Z,0.40
2019-05-03T04:18:05.796Z,0.50
2019-05-03T04:20:37.696Z,0.47
2019-05-03T04:23:07.669Z,0.50
2019-05-03T04:25:37.754Z,0.40
2019-05-03T04:28:08.279Z,0.50
2019-05-03T04:30:38.294Z,0.50
2019-05-03T04:33:08.341Z,0.60
2019-05-03T04:35:38.289Z,0.40
2019-05-03T04:38:08.463Z,0.47
2019-05-03T04:40:38.449Z,0.40
2019-05-03T04:43:08.473Z,0.50
2019-05-03T04:45:38.510Z,0.50
2019-05-03T04:48:09.178Z,0.50
2019-05-03T04:50:39.194Z,0.50
2019-05-03T04:53:09.427Z,0.47
2019-05-03T04:55:39.404Z,0.50
2019-05-03T04:58:09.439Z,0.50
2019-05-03T05:00:39.423Z,0.60
2019-05-03T05:03:09.412Z,0.60
2019-05-03T05:05:39.394Z,0.53
2019-05-03T05:08:09.443Z,0.50
2019-05-03T05:10:39.418Z,0.50
2019-05-03T05:13:09.474Z,0.57
2019-05-03T05:15:39.529Z,1.37
2019-05-03T05:18:11.245Z,0.67
2019-05-03T05:20:45.643Z,0.60
2019-05-03T05:23:15.609Z,0.77
2019-05-03T05:25:47.255Z,0.80
2019-05-03T05:28:18.891Z,0.80
2019-05-03T05:30:49.233Z,0.60
2019-05-03T05:33:22.310Z,0.57
2019-05-03T05:35:54.530Z,0.57
2019-05-03T05:38:25.579Z,0.47
2019-05-03T05:40:55.763Z,0.30
2019-05-03T05:43:25.791Z,0.37
2019-05-03T05:45:58.788Z,0.30
2019-05-03T05:48:32.198Z,0.40
2019-05-03T05:51:04.318Z,0.40
2019-05-03T05:53:35.747Z,0.30
2019-05-03T05:56:19.312Z,0.47
2019-05-03T05:58:50.942Z,0.30
2019-05-03T06:01:31.350Z,0.30
2019-05-03T06:04:01.319Z,0.20
2019-05-03T06:06:49.597Z,0.30
2019-05-03T06:09:21.122Z,0.20
2019-05-03T06:11:55.501Z,0.37
2019-05-03T06:14:27.151Z,0.30
2019-05-03T06:17:01.249Z,0.30
2019-05-03T06:19:37.013Z,0.40
2019-05-03T06:22:15.352Z,0.37
2019-05-03T06:24:54.383Z,0.20
2019-05-03T06:27:27.224Z,0.30
2019-05-03T06:29:58.850Z,0.27
2019-05-03T06:32:30.476Z,0.30
2019-05-03T06:35:01.539Z,0.20
2019-05-03T06:37:35.637Z,0.30
2019-05-03T06:40:09.025Z,0.20
2019-05-03T06:42:51.635Z,0.30
2019-05-03T06:45:11.850Z,0.27
2019-05-03T06:47:46.022Z,0.20
2019-05-03T06:50:14.628Z,0.33
2019-05-03T06:52:44.735Z,0.23
2019-05-03T06:55:14.983Z,0.30
2019-05-03T06:57:49.558Z,0.37
2019-05-03T07:00:38.660Z,0.27
2019-05-03T07:03:25.272Z,0.40
2019-05-03T07:06:15.035Z,0.43
2019-05-03T07:08:47.261Z,0.20
2019-05-03T07:11:17.368Z,0.30
2019-05-03T07:13:47.362Z,0.30
2019-05-03T07:16:17.411Z,0.37
2019-05-03T07:18:47.406Z,0.27
2019-05-03T07:21:17.435Z,0.30
2019-05-03T07:23:47.491Z,0.20
2019-05-03T07:26:17.511Z,0.30
2019-05-03T07:28:50.033Z,0.30
2019-05-03T07:31:19.203Z,0.20
2019-05-03T07:33:49.275Z,0.20
2019-05-03T07:36:19.336Z,0.20
2019-05-03T07:38:49.330Z,0.20
2019-05-03T07:41:19.408Z,0.20
2019-05-03T07:43:49.405Z,0.30
2019-05-03T07:46:20.483Z,0.30
2019-05-03T07:48:50.583Z,0.20
2019-05-03T07:51:20.573Z,0.20
2019-05-03T07:53:50.588Z,0.20
2019-05-03T07:56:20.987Z,0.33
2019-05-03T07:59:00.119Z,0.30
2019-05-03T08:01:31.781Z,0.30
2019-05-03T08:04:01.769Z,0.30
2019-05-03T08:06:31.812Z,0.33
2019-05-03T08:09:01.789Z,0.20
2019-05-03T08:11:35.158Z,0.30
2019-05-03T08:14:06.604Z,0.47
2019-05-03T08:16:36.728Z,0.30
2019-05-03T08:19:06.738Z,0.30
2019-05-03T08:21:38.439Z,0.27
2019-05-03T08:24:08.536Z,0.30
2019-05-03T08:26:38.566Z,0.30
2019-05-03T08:29:15.979Z,0.30
2019-05-03T08:31:41.887Z,0.40
2019-05-03T08:34:15.349Z,0.33
2019-05-03T08:36:54.878Z,0.40
2019-05-03T08:39:26.489Z,0.30
2019-05-03T08:41:58.190Z,0.40
2019-05-03T08:44:28.322Z,0.47
2019-05-03T08:46:58.847Z,1.20
2019-05-03T08:49:28.984Z,0.40
2019-05-03T08:51:59.001Z,0.30
2019-05-03T08:54:28.991Z,0.27
2019-05-03T08:56:59.017Z,0.30
2019-05-03T08:59:32.511Z,0.37
2019-05-03T09:02:03.543Z,0.30
2019-05-03T09:04:37.355Z,0.27
2019-05-03T09:07:05.515Z,0.23
2019-05-03T09:09:43.416Z,0.33
2019-05-03T09:12:14.504Z,0.30
2019-05-03T09:14:48.397Z,0.20
2019-05-03T09:17:17.848Z,0.30
2019-05-03T09:19:47.874Z,0.20
2019-05-03T09:22:17.989Z,0.40
2019-05-03T09:24:47.983Z,0.33
2019-05-03T09:27:18.058Z,0.30
2019-05-03T09:29:48.056Z,0.20
2019-05-03T09:32:18.052Z,0.20
2019-05-03T09:34:48.090Z,0.27
2019-05-03T09:37:18.155Z,0.40
2019-05-03T09:39:48.184Z,0.80
2019-05-03T09:42:18.243Z,0.90
2019-05-03T09:44:48.238Z,1.03
2019-05-03T09:47:18.360Z,0.37
2019-05-03T09:49:48.355Z,0.20
2019-05-03T09:52:18.396Z,0.20
2019-05-03T09:54:54.744Z,0.30
2019-05-03T09:57:24.944Z,0.30
2019-05-03T09:59:59.654Z,0.30
2019-05-03T10:02:26.763Z,0.20
2019-05-03T10:04:57.832Z,0.30
2019-05-03T10:07:27.919Z,0.30
2019-05-03T10:09:57.910Z,0.30
2019-05-03T10:12:27.898Z,0.37
2019-05-03T10:14:57.969Z,0.40
2019-05-03T10:17:35.511Z,0.27
2019-05-03T10:20:08.216Z,0.30
2019-05-03T10:22:38.209Z,0.40
2019-05-03T10:25:08.516Z,0.43
2019-05-03T10:27:47.786Z,0.27
2019-05-03T10:30:21.569Z,0.20
2019-05-03T10:32:56.293Z,0.30
2019-05-03T10:35:26.323Z,0.30
2019-05-03T10:37:56.379Z,0.20
2019-05-03T10:40:27.412Z,0.40
2019-05-03T10:42:57.479Z,0.30
2019-05-03T10:45:28.161Z,0.20
2019-05-03T10:47:58.340Z,0.40
2019-05-03T10:50:28.317Z,0.30
2019-05-03T10:53:11.890Z,0.30
2019-05-03T10:55:45.109Z,0.30
2019-05-03T10:58:19.231Z,0.30
2019-05-03T11:00:53.346Z,0.27
2019-05-03T11:03:22.643Z,0.30
2019-05-03T11:05:54.784Z,0.20
2019-05-03T11:08:24.454Z,0.20
2019-05-03T11:10:54.896Z,0.20
2019-05-03T11:13:26.478Z,0.20
2019-05-03T11:15:56.579Z,0.20
2019-05-03T11:18:28.260Z,0.20
2019-05-03T11:20:58.242Z,0.20
2019-05-03T11:23:28.376Z,0.30
2019-05-03T11:25:58.402Z,0.20
2019-05-03T11:28:28.369Z,0.20
2019-05-03T11:31:02.468Z,0.17
2019-05-03T11:33:35.863Z,0.33
2019-05-03T11:36:22.743Z,0.30
2019-05-03T11:38:55.742Z,0.40
2019-05-03T11:41:32.535Z,0.20
2019-05-03T11:44:00.527Z,0.30
2019-05-03T11:46:30.616Z,0.20
2019-05-03T11:49:00.608Z,3.60
2019-05-03T11:51:31.621Z,0.90
2019-05-03T11:54:01.688Z,0.50
2019-05-03T11:56:31.687Z,0.33
2019-05-03T11:59:01.665Z,0.30
2019-05-03T12:01:35.568Z,0.20
2019-05-03T12:04:05.106Z,0.23
2019-05-03T12:06:36.807Z,0.30
2019-05-03T12:09:07.422Z,0.30
2019-05-03T12:11:39.542Z,0.23
2019-05-03T12:14:12.513Z,0.30
2019-05-03T12:17:17.535Z,0.20
2019-05-03T12:19:22.829Z,0.30
2019-05-03T12:21:50.749Z,0.30
2019-05-03T12:24:22.099Z,0.37
2019-05-03T12:26:52.378Z,0.20
2019-05-03T12:29:24.471Z,0.20
2019-05-03T12:31:54.819Z,0.30
2019-05-03T12:34:25.577Z,0.27
2019-05-03T12:36:55.756Z,0.20
2019-05-03T12:39:29.995Z,0.20
2019-05-03T12:41:57.547Z,0.30
2019-05-03T12:44:27.811Z,0.17
2019-05-03T12:46:57.923Z,0.20
2019-05-03T12:49:28.038Z,0.23
2019-05-03T12:51:58.073Z,0.30
2019-05-03T12:54:28.080Z,0.20
2019-05-03T12:56:58.170Z,0.30
2019-05-03T12:59:36.077Z,0.27
2019-05-03T13:02:15.524Z,0.30
2019-05-03T13:04:47.919Z,0.20
2019-05-03T13:07:28.495Z,0.10
2019-05-03T13:09:58.486Z,0.20
2019-05-03T13:12:29.818Z,0.20
2019-05-03T13:14:59.960Z,0.30
2019-05-03T13:17:39.066Z,0.30
2019-05-03T13:20:11.940Z,0.17
2019-05-03T13:22:42.221Z,0.37
2019-05-03T13:25:15.484Z,0.30
2019-05-03T13:27:48.800Z,0.20
2019-05-03T13:30:18.938Z,0.20
2019-05-03T13:32:48.961Z,0.20
2019-05-03T13:35:18.970Z,0.30
2019-05-03T13:37:48.977Z,0.20
2019-05-03T13:40:19.046Z,0.20
2019-05-03T13:42:57.136Z,0.30
2019-05-03T13:45:20.814Z,0.30
2019-05-03T13:47:50.758Z,0.30
2019-05-03T13:50:20.760Z,0.20
2019-05-03T13:52:50.756Z,0.20
2019-05-03T13:55:20.738Z,0.30
2019-05-03T13:57:50.781Z,0.30
2019-05-03T14:00:20.831Z,0.20
2019-05-03T14:02:50.943Z,0.30
2019-05-03T14:05:20.942Z,0.27
2019-05-03T14:07:50.999Z,0.20
2019-05-03T14:10:21.116Z,0.30
2019-05-03T14:12:51.139Z,0.30
2019-05-03T14:15:21.277Z,0.50
2019-05-03T14:17:51.299Z,0.70
2019-05-03T14:20:23.104Z,0.47
2019-05-03T14:22:53.094Z,0.30
2019-05-03T14:25:24.685Z,0.27
2019-05-03T14:27:55.118Z,0.30
2019-05-03T14:30:25.442Z,0.30
2019-05-03T14:32:55.764Z,0.30
2019-05-03T14:35:25.793Z,0.23
2019-05-03T14:37:55.765Z,0.30
2019-05-03T14:40:25.825Z,0.40
2019-05-03T14:42:55.890Z,0.30
2019-05-03T14:45:25.893Z,0.50
2019-05-03T14:47:57.735Z,0.50
2019-05-03T14:50:27.609Z,0.37
2019-05-03T14:52:57.590Z,0.30
2019-05-03T14:55:38.045Z,1.80
2019-05-03T14:58:25.930Z,1.37
2019-05-03T15:00:57.804Z,1.10
2019-05-03T15:03:30.925Z,1.27
2019-05-03T15:06:00.922Z,3.40
2019-05-03T15:08:30.997Z,3.10
2019-05-03T15:11:01.053Z,0.80
2019-05-03T15:13:32.157Z,3.00
2019-05-03T15:16:02.118Z,37.50
2019-05-03T15:18:32.204Z,9.03
2019-05-03T15:21:02.205Z,22.93
2019-05-03T15:23:32.268Z,22.40
2019-05-03T15:26:02.251Z,0.80
2019-05-03T15:28:32.229Z,0.60
2019-05-03T15:31:04.438Z,0.40
2019-05-03T15:33:35.318Z,0.53
2019-05-03T15:36:06.990Z,0.50
2019-05-03T15:38:37.043Z,0.63
2019-05-03T15:41:07.118Z,3.67
2019-05-03T15:43:38.730Z,1.73
2019-05-03T15:46:28.249Z,5.30
2019-05-03T15:48:59.880Z,17.43
2019-05-03T15:51:29.980Z,21.20
2019-05-03T15:53:59.959Z,1.67
2019-05-03T15:56:29.933Z,8.53
2019-05-03T15:58:59.919Z,2.33
2019-05-03T16:01:29.907Z,4.03
2019-05-03T16:03:59.880Z,3.97
2019-05-03T16:06:29.868Z,14.03
2019-05-03T16:08:59.934Z,6.10
2019-05-03T16:11:29.990Z,10.60
2019-05-03T16:14:00.070Z,27.87
2019-05-03T16:16:30.063Z,10.23
2019-05-03T16:19:00.088Z,10.67
2019-05-03T16:21:31.289Z,13.87
2019-05-03T16:24:01.319Z,5.60
2019-05-03T16:26:31.372Z,12.87
2019-05-03T16:29:08.998Z,4.70
2019-05-03T16:31:38.975Z,7.33
2019-05-03T16:34:08.993Z,2.50
2019-05-03T16:36:38.964Z,15.13
2019-05-03T16:39:09.028Z,7.53
2019-05-03T16:41:40.597Z,8.90
2019-05-03T16:44:10.709Z,8.27
2019-05-03T16:46:41.945Z,4.23
2019-05-03T16:49:11.932Z,0.60
2019-05-03T16:51:44.291Z,0.90
2019-05-03T16:54:14.625Z,0.60
2019-05-03T16:56:46.119Z,1.10
2019-05-03T16:59:17.412Z,1.10
2019-05-03T17:01:47.561Z,1.20
2019-05-03T17:04:21.845Z,3.60
2019-05-03T17:06:59.442Z,37.80
2019-05-03T17:09:49.319Z,59.17
2019-05-03T17:12:25.908Z,50.10
2019-05-03T17:14:57.056Z,8.10
2019-05-03T17:17:27.356Z,2.20
2019-05-03T17:19:57.423Z,11.57
2019-05-03T17:22:27.566Z,4.03
2019-05-03T17:24:57.636Z,6.93
2019-05-03T17:27:27.611Z,8.00
2019-05-03T17:29:57.673Z,1.50
2019-05-03T17:32:27.735Z,8.97
2019-05-03T17:34:57.755Z,1.40
2019-05-03T17:37:27.734Z,1.00
2019-05-03T17:40:17.941Z,10.17
2019-05-03T17:42:58.739Z,3.00
2019-05-03T17:45:38.064Z,0.67
2019-05-03T17:48:07.691Z,0.80
2019-05-03T17:50:37.693Z,1.60
2019-05-03T17:53:25.798Z,0.60
2019-05-03T17:56:04.677Z,0.57
2019-05-03T17:58:52.585Z,0.60
2019-05-03T18:01:29.991Z,0.47
2019-05-03T18:04:08.314Z,0.47
2019-05-03T18:06:38.005Z,2.00
2019-05-03T18:09:10.812Z,1.10
2019-05-03T18:11:45.571Z,0.90
2019-05-03T18:14:15.589Z,1.60
2019-05-03T18:16:45.560Z,6.07
2019-05-03T18:19:15.669Z,1.50
2019-05-03T18:21:45.654Z,2.60
2019-05-03T18:24:15.655Z,1.97
2019-05-03T18:26:45.783Z,2.70
2019-05-03T18:29:15.827Z,1.40
2019-05-03T18:31:45.773Z,0.60
2019-05-03T18:34:19.965Z,0.40
2019-05-03T18:36:47.430Z,1.30
2019-05-03T18:39:17.412Z,3.90
2019-05-03T18:41:47.406Z,0.60
2019-05-03T18:44:27.719Z,0.37
2019-05-03T18:47:02.013Z,2.73
2019-05-03T18:49:32.083Z,0.80
2019-05-03T18:52:02.173Z,0.90
2019-05-03T18:54:32.234Z,1.93
2019-05-03T18:57:02.229Z,1.60
2019-05-03T18:59:32.296Z,1.60
2019-05-03T19:02:02.506Z,5.43
2019-05-03T19:04:37.887Z,1.50
2019-05-03T19:07:09.721Z,1.57
2019-05-03T19:09:41.353Z,2.07
2019-05-03T19:12:18.820Z,3.30
2019-05-03T19:14:48.935Z,0.90
2019-05-03T19:17:30.890Z,1.77
2019-05-03T19:20:01.533Z,1.10
2019-05-03T19:22:34.395Z,0.60
2019-05-03T19:25:06.726Z,1.70
2019-05-03T19:27:36.687Z,1.30
2019-05-03T19:30:08.023Z,1.00
2019-05-03T19:32:38.022Z,2.20
2019-05-03T19:35:09.549Z,2.27
2019-05-03T19:37:39.659Z,1.97
2019-05-03T19:40:10.964Z,1.53
2019-05-03T19:42:40.989Z,1.80
2019-05-03T19:45:11.375Z,3.33
2019-05-03T19:47:41.381Z,0.40
2019-05-03T19:50:11.542Z,1.30
2019-05-03T19:52:59.550Z,0.70
2019-05-03T19:55:29.656Z,1.43
2019-05-03T19:57:59.710Z,1.70
2019-05-03T20:00:32.420Z,1.50
2019-05-03T20:03:04.951Z,0.50
2019-05-03T20:05:37.770Z,0.90
2019-05-03T20:08:12.284Z,0.50
2019-05-03T20:10:42.540Z,0.50
2019-05-03T20:13:12.603Z,0.33
2019-05-03T20:15:44.928Z,0.60
2019-05-03T20:18:15.251Z,0.90
2019-05-03T20:20:46.363Z,2.17
2019-05-03T20:23:16.360Z,2.10
2019-05-03T20:25:46.465Z,1.50
2019-05-03T20:28:16.449Z,1.00
2019-05-03T20:30:46.487Z,1.10
2019-05-03T20:33:16.481Z,0.90
2019-05-03T20:35:46.602Z,0.70
2019-05-03T20:38:16.554Z,0.60
2019-05-03T20:40:46.636Z,0.87
2019-05-03T20:43:18.345Z,1.00
2019-05-03T20:45:54.753Z,0.70
2019-05-03T20:48:25.116Z,0.60
2019-05-03T20:50:55.225Z,0.50
2019-05-03T20:53:25.246Z,0.50
2019-05-03T20:55:56.292Z,0.30
2019-05-03T20:58:26.287Z,0.70
2019-05-03T21:00:56.242Z,0.70
2019-05-03T21:03:26.214Z,0.97
2019-05-03T21:05:56.201Z,0.77
2019-05-03T21:08:26.170Z,1.07
2019-05-03T21:10:56.367Z,1.00
2019-05-03T21:13:38.614Z,0.63
2019-05-03T21:16:15.268Z,0.77
2019-05-03T21:18:46.866Z,0.50
2019-05-03T21:21:18.514Z,0.37
2019-05-03T21:24:02.431Z,0.33
2019-05-03T21:26:34.493Z,0.50
2019-05-03T21:29:04.724Z,0.40
2019-05-03T21:31:35.701Z,0.30
2019-05-03T21:34:05.789Z,0.30
2019-05-03T21:36:35.909Z,0.20
2019-05-03T21:39:06.933Z,0.30
2019-05-03T21:41:38.127Z,0.60
2019-05-03T21:44:11.104Z,0.87
2019-05-03T21:46:44.913Z,1.63
2019-05-03T21:49:21.606Z,1.87
2019-05-03T21:51:53.608Z,0.50
2019-05-03T21:54:24.612Z,0.60
2019-05-03T21:56:56.542Z,0.50
2019-05-03T21:59:26.704Z,0.27
2019-05-03T22:01:56.790Z,0.40
2019-05-03T22:04:26.849Z,0.30
2019-05-03T22:06:56.840Z,0.30
2019-05-03T22:09:26.963Z,0.40
2019-05-03T22:11:56.962Z,0.30
2019-05-03T22:14:28.643Z,0.30
2019-05-03T22:17:05.905Z,0.33
2019-05-03T22:19:35.953Z,0.40
2019-05-03T22:22:25.415Z,0.43
2019-05-03T22:24:57.323Z,0.70
2019-05-03T22:27:28.959Z,0.70
2019-05-03T22:29:58.958Z,0.53
2019-05-03T22:32:29.004Z,0.50
2019-05-03T22:34:58.985Z,0.50
2019-05-03T22:37:28.973Z,1.03
2019-05-03T22:39:59.006Z,1.10
2019-05-03T22:42:28.987Z,0.70
2019-05-03T22:44:58.973Z,0.60
2019-05-03T22:47:29.035Z,0.60
2019-05-03T22:49:59.109Z,0.47
2019-05-03T22:52:29.084Z,0.50
2019-05-03T22:54:59.081Z,0.47
2019-05-03T22:57:29.046Z,0.40
2019-05-03T22:59:59.147Z,0.50
2019-05-03T23:02:29.237Z,0.33
2019-05-03T23:04:59.279Z,0.40
2019-05-03T23:07:29.365Z,0.40
2019-05-03T23:09:59.385Z,0.47
2019-05-03T23:12:29.376Z,0.40
2019-05-03T23:14:59.441Z,0.60
2019-05-03T23:17:29.426Z,0.53
2019-05-03T23:20:01.051Z,0.30
2019-05-03T23:22:32.369Z,0.40
2019-05-03T23:25:02.414Z,0.40
2019-05-03T23:27:32.438Z,0.40
2019-05-03T23:30:02.663Z,0.33
2019-05-03T23:32:34.928Z,0.50
2019-05-03T23:35:06.283Z,0.30
2019-05-03T23:37:36.406Z,0.37
2019-05-03T23:40:07.509Z,0.30
2019-05-03T23:42:37.517Z,0.30
2019-05-03T23:45:07.711Z,0.40
2019-05-03T23:47:45.294Z,0.30
2019-05-03T23:50:19.786Z,0.40
2019-05-03T23:52:49.852Z,3.20
2019-05-03T23:55:34.596Z,4.00
2019-05-03T23:58:04.980Z,3.00
